Time;durP1;ratioP1;P1;durP2;ratioP2;P2;SDS_P1;SDS_P2;PMS_P1;PMS_P2;Temp;Humidity;BMP_temperature;BMP_pressure;BME280_temperature;BME280_humidity;BME280_pressure;Samples;Min_cycle;Max_cycle;Signal;HPM_P1;HPM_P2
2021/09/20 00:02:15;;;;;;;16.33;11.48;;;;;;;;;;5020915;28;20202;-74
2021/09/20 00:04:40;;;;;;;15.82;11.77;;;;;;;;;;5028181;28;20174;-74
2021/09/20 00:07:06;;;;;;;14.15;11.07;;;;;;;;;;5020690;28;20193;-74
2021/09/20 00:09:31;;;;;;;15.95;11.43;;;;;;;;;;5027363;28;20190;-74
2021/09/20 00:11:57;;;;;;;16.33;11.43;;;;;;;;;;5020057;28;20193;-74
2021/09/20 00:14:22;;;;;;;16.90;11.85;;;;;;;;;;5029758;28;20308;-74
2021/09/20 00:16:47;;;;;;;17.90;12.00;;;;;;;;;;5021256;28;20212;-74
2021/09/20 00:19:13;;;;;;;16.25;11.27;;;;;;;;;;5026214;28;20186;-74
2021/09/20 00:21:38;;;;;;;16.30;11.13;;;;;;;;;;5017929;28;20193;-74
2021/09/20 00:24:04;;;;;;;17.10;11.52;;;;;;;;;;5030307;28;20189;-74
2021/09/20 00:26:29;;;;;;;15.55;11.75;;;;;;;;;;5016472;28;20197;-74
2021/09/20 00:28:55;;;;;;;17.60;11.63;;;;;;;;;;5030009;28;20259;-74
2021/09/20 00:31:20;;;;;;;18.52;11.75;;;;;;;;;;5024127;28;20284;-74
2021/09/20 00:33:46;;;;;;;17.98;11.55;;;;;;;;;;5017400;28;20220;-74
2021/09/20 00:36:11;;;;;;;16.73;11.00;;;;;;;;;;5028504;28;20664;-74
2021/09/20 00:38:36;;;;;;;17.25;11.85;;;;;;;;;;5016303;28;20198;-73
2021/09/20 00:41:03;;;;;;;17.60;11.45;;;;;;;;;;5027395;28;20197;-73
2021/09/20 00:43:28;;;;;;;13.48;10.45;;;;;;;;;;5018497;28;20251;-74
2021/09/20 00:45:53;;;;;;;18.05;11.25;;;;;;;;;;5026705;28;20281;-73
2021/09/20 00:48:19;;;;;;;15.15;10.57;;;;;;;;;;5016097;28;20200;-73
2021/09/20 00:50:44;;;;;;;19.73;11.52;;;;;;;;;;5029244;28;20186;-73
2021/09/20 00:53:10;;;;;;;15.95;11.40;;;;;;;;;;5017404;28;20877;-74
2021/09/20 00:55:36;;;;;;;14.77;10.20;;;;;;;;;;5028773;28;20280;-74
2021/09/20 00:58:01;;;;;;;16.33;10.73;;;;;;;;;;5018547;28;20210;-74
2021/09/20 01:00:27;;;;;;;15.80;10.25;;;;;;;;;;5023423;28;20594;-74
2021/09/20 01:02:52;;;;;;;13.32;10.70;;;;;;;;;;5024745;28;20193;-74
2021/09/20 01:05:18;;;;;;;14.48;10.43;;;;;;;;;;5015848;28;20198;-73
2021/09/20 01:07:43;;;;;;;16.52;11.13;;;;;;;;;;5024938;28;20189;-74
2021/09/20 01:10:10;;;;;;;15.15;10.98;;;;;;;;;;5019055;28;20258;-74
2021/09/20 01:12:36;;;;;;;14.05;10.35;;;;;;;;;;5027116;28;20213;-74
2021/09/20 01:15:03;;;;;;;14.85;10.05;;;;;;;;;;5016825;28;20637;-73
2021/09/20 01:17:29;;;;;;;15.27;10.20;;;;;;;;;;5025758;28;20186;-73
2021/09/20 01:19:54;;;;;;;15.43;10.57;;;;;;;;;;5015093;28;20192;-74
2021/09/20 01:22:21;;;;;;;16.33;10.68;;;;;;;;;;5023098;28;20185;-73
2021/09/20 01:24:48;;;;;;;13.20;10.80;;;;;;;;;;5015404;28;20269;-74
2021/09/20 01:27:17;;;;;;;14.85;10.18;;;;;;;;;;5026783;28;20622;-74
2021/09/20 01:29:42;;;;;;;12.60;9.43;;;;;;;;;;5016088;28;20194;-73
2021/09/20 01:32:08;;;;;;;16.35;10.07;;;;;;;;;;5025311;28;20189;-73
2021/09/20 01:34:34;;;;;;;14.20;9.75;;;;;;;;;;5026017;28;20271;-73
2021/09/20 01:37:01;;;;;;;14.68;9.73;;;;;;;;;;5017208;28;20197;-73
2021/09/20 01:39:30;;;;;;;14.50;10.10;;;;;;;;;;5026139;28;20296;-73
2021/09/20 01:41:56;;;;;;;13.68;9.77;;;;;;;;;;5016030;28;20743;-73
2021/09/20 01:44:23;;;;;;;13.02;9.30;;;;;;;;;;5027460;28;20196;-74
2021/09/20 01:46:50;;;;;;;14.70;9.65;;;;;;;;;;5017537;28;20420;-73
2021/09/20 01:49:16;;;;;;;15.38;10.20;;;;;;;;;;5028738;28;20196;-73
2021/09/20 01:51:42;;;;;;;16.23;10.13;;;;;;;;;;5019679;28;20238;-73
2021/09/20 01:54:09;;;;;;;13.85;10.13;;;;;;;;;;5025213;28;20745;-73
2021/09/20 01:56:34;;;;;;;12.93;9.60;;;;;;;;;;5016307;28;20262;-74
2021/09/20 01:59:00;;;;;;;14.60;9.40;;;;;;;;;;5022236;28;20213;-73
2021/09/20 02:01:27;;;;;;;17.20;9.63;;;;;;;;;;5022912;28;20705;-74
2021/09/20 02:03:53;;;;;;;15.75;9.90;;;;;;;;;;5026997;28;23037;-74
2021/09/20 02:06:20;;;;;;;15.38;9.95;;;;;;;;;;5025745;28;20572;-73
2021/09/20 02:08:45;;;;;;;14.90;10.40;;;;;;;;;;5017713;28;20303;-73
2021/09/20 02:11:11;;;;;;;14.48;9.60;;;;;;;;;;5024975;28;20201;-73
2021/09/20 02:13:36;;;;;;;15.68;9.73;;;;;;;;;;5016743;28;20209;-73
2021/09/20 02:16:01;;;;;;;15.18;9.23;;;;;;;;;;5023532;28;20236;-73
2021/09/20 02:18:27;;;;;;;13.40;9.57;;;;;;;;;;5017750;28;20193;-73
2021/09/20 02:20:53;;;;;;;14.38;9.38;;;;;;;;;;5021831;28;20565;-73
2021/09/20 02:23:18;;;;;;;16.88;9.02;;;;;;;;;;5016066;28;21775;-73
2021/09/20 02:25:43;;;;;;;15.73;10.20;;;;;;;;;;5025280;28;20186;-73
2021/09/20 02:28:10;;;;;;;16.25;10.30;;;;;;;;;;5015472;28;20672;-73
2021/09/20 02:30:35;;;;;;;16.13;10.02;;;;;;;;;;5025816;28;20776;-73
2021/09/20 02:33:01;;;;;;;14.20;9.57;;;;;;;;;;5020300;28;20205;-73
2021/09/20 02:35:26;;;;;;;15.85;9.80;;;;;;;;;;5020149;28;20182;-73
2021/09/20 02:37:52;;;;;;;17.48;10.35;;;;;;;;;;5024494;28;20185;-74
2021/09/20 02:40:17;;;;;;;13.95;9.70;;;;;;;;;;5018624;28;20194;-73
2021/09/20 02:42:42;;;;;;;14.13;9.85;;;;;;;;;;5023327;28;20652;-73
2021/09/20 02:45:09;;;;;;;17.77;10.43;;;;;;;;;;5016350;28;20193;-73
2021/09/20 02:47:36;;;;;;;15.85;10.10;;;;;;;;;;5026548;28;20284;-73
2021/09/20 02:50:03;;;;;;;16.15;9.40;;;;;;;;;;5016444;28;20186;-73
2021/09/20 02:52:28;;;;;;;14.05;10.30;;;;;;;;;;5024880;28;20222;-73
2021/09/20 02:54:54;;;;;;;15.80;10.15;;;;;;;;;;5015309;28;20371;-73
2021/09/20 02:57:19;;;;;;;17.35;10.23;;;;;;;;;;5022739;28;20209;-73
2021/09/20 02:59:45;;;;;;;15.77;9.30;;;;;;;;;;5015586;28;20200;-73
2021/09/20 03:02:10;;;;;;;16.77;9.60;;;;;;;;;;5027032;28;20217;-74
2021/09/20 03:04:35;;;;;;;13.73;9.75;;;;;;;;;;5023840;28;20186;-74
2021/09/20 03:07:01;;;;;;;13.95;9.63;;;;;;;;;;5023441;28;20182;-74
2021/09/20 03:09:26;;;;;;;14.07;9.15;;;;;;;;;;5028171;28;20198;-74
2021/09/20 03:11:51;;;;;;;20.55;10.20;;;;;;;;;;5019466;28;20889;-74
2021/09/20 03:14:17;;;;;;;15.40;9.95;;;;;;;;;;5026023;28;20213;-73
2021/09/20 03:16:42;;;;;;;18.55;9.52;;;;;;;;;;5022114;28;20182;-73
2021/09/20 03:19:07;;;;;;;15.48;9.65;;;;;;;;;;5028191;28;20185;-73
2021/09/20 03:21:33;;;;;;;14.27;9.48;;;;;;;;;;5017835;28;20194;-73
2021/09/20 03:23:58;;;;;;;14.40;9.48;;;;;;;;;;5026654;28;20170;-73
2021/09/20 03:26:23;;;;;;;14.70;9.48;;;;;;;;;;5021857;28;20198;-73
2021/09/20 03:28:49;;;;;;;14.38;9.70;;;;;;;;;;5028887;28;20186;-73
2021/09/20 03:31:14;;;;;;;15.05;10.15;;;;;;;;;;5018516;28;20185;-73
2021/09/20 03:33:39;;;;;;;16.90;9.80;;;;;;;;;;5031111;28;20338;-73
2021/09/20 03:36:05;;;;;;;14.70;9.30;;;;;;;;;;5030146;28;20224;-73
2021/09/20 03:38:30;;;;;;;13.70;9.80;;;;;;;;;;5018770;28;20197;-73
2021/09/20 03:40:55;;;;;;;14.32;9.60;;;;;;;;;;5028380;28;20871;-73
2021/09/20 03:43:21;;;;;;;12.90;9.45;;;;;;;;;;5018610;28;20200;-73
2021/09/20 03:45:46;;;;;;;14.02;9.50;;;;;;;;;;5028602;28;20255;-73
2021/09/20 03:48:11;;;;;;;14.98;10.30;;;;;;;;;;5018349;28;20274;-73
2021/09/20 03:50:37;;;;;;;15.10;9.30;;;;;;;;;;5026585;28;20192;-73
2021/09/20 03:53:02;;;;;;;14.98;9.90;;;;;;;;;;5019326;28;20234;-73
2021/09/20 03:55:28;;;;;;;16.80;9.90;;;;;;;;;;5027218;28;20186;-73
2021/09/20 03:57:53;;;;;;;16.48;10.10;;;;;;;;;;5021308;28;20623;-73
2021/09/20 04:00:18;;;;;;;15.90;9.73;;;;;;;;;;5026260;28;21776;-73
2021/09/20 04:02:44;;;;;;;14.38;9.70;;;;;;;;;;5020231;28;20192;-73
2021/09/20 04:05:10;;;;;;;18.42;10.77;;;;;;;;;;5024229;28;20197;-73
2021/09/20 04:07:42;;;;;;;17.02;10.38;;;;;;;;;;5026154;28;20264;-73
2021/09/20 04:10:09;;;;;;;20.42;11.65;;;;;;;;;;5017629;28;20398;-73
2021/09/20 04:12:34;;;;;;;20.55;11.93;;;;;;;;;;5025267;28;20193;-73
2021/09/20 04:15:00;;;;;;;18.67;11.55;;;;;;;;;;5016644;28;20309;-73
2021/09/20 04:17:25;;;;;;;16.88;10.43;;;;;;;;;;5025817;28;20250;-73
2021/09/20 04:19:50;;;;;;;15.43;10.63;;;;;;;;;;5016902;28;21815;-73
2021/09/20 04:22:15;;;;;;;18.95;10.85;;;;;;;;;;5028649;28;20247;-73
2021/09/20 04:24:41;;;;;;;19.83;11.32;;;;;;;;;;5017187;28;20268;-74
2021/09/20 04:27:06;;;;;;;19.95;10.43;;;;;;;;;;5027442;28;20219;-74
2021/09/20 04:29:31;;;;;;;16.42;10.75;;;;;;;;;;5016938;28;20193;-74
2021/09/20 04:31:57;;;;;;;17.77;11.60;;;;;;;;;;5026250;28;20186;-74
2021/09/20 04:34:23;;;;;;;17.83;10.05;;;;;;;;;;5022549;28;20224;-74
2021/09/20 04:36:49;;;;;;;17.90;11.13;;;;;;;;;;5026499;28;20193;-74
2021/09/20 04:39:14;;;;;;;14.40;10.13;;;;;;;;;;5023673;28;20201;-74
2021/09/20 04:41:41;;;;;;;17.38;11.02;;;;;;;;;;5018800;28;20237;-74
2021/09/20 04:44:07;;;;;;;19.40;10.93;;;;;;;;;;5025240;28;20194;-74
2021/09/20 04:46:32;;;;;;;17.02;11.05;;;;;;;;;;5018900;28;20283;-74
2021/09/20 04:48:57;;;;;;;19.88;11.18;;;;;;;;;;5024995;28;20190;-74
2021/09/20 04:51:23;;;;;;;18.48;11.60;;;;;;;;;;5016210;28;20655;-73
2021/09/20 04:53:48;;;;;;;17.77;12.02;;;;;;;;;;5023656;28;22330;-74
2021/09/20 04:56:14;;;;;;;20.03;11.67;;;;;;;;;;5017922;28;20657;-74
2021/09/20 04:58:40;;;;;;;17.95;11.32;;;;;;;;;;5023861;28;20213;-74
2021/09/20 05:01:05;;;;;;;18.17;11.38;;;;;;;;;;5015157;28;20248;-74
2021/09/20 05:03:31;;;;;;;17.77;12.27;;;;;;;;;;5023736;28;20193;-74
2021/09/20 05:05:56;;;;;;;19.13;11.88;;;;;;;;;;5020557;28;20186;-74
2021/09/20 05:08:21;;;;;;;19.75;11.57;;;;;;;;;;5023220;28;20534;-74
2021/09/20 05:10:47;;;;;;;21.27;12.13;;;;;;;;;;5024532;28;20209;-74
2021/09/20 05:13:12;;;;;;;21.80;12.37;;;;;;;;;;5015282;28;20224;-74
2021/09/20 05:15:37;;;;;;;18.53;11.73;;;;;;;;;;5024091;28;20202;-74
2021/09/20 05:18:03;;;;;;;20.97;12.47;;;;;;;;;;5013733;28;20255;-74
2021/09/20 05:20:28;;;;;;;20.57;12.50;;;;;;;;;;5027612;28;20274;-74
2021/09/20 05:22:53;;;;;;;20.83;12.35;;;;;;;;;;5014268;28;20208;-74
2021/09/20 05:25:22;;;;;;;21.53;12.23;;;;;;;;;;5026581;28;20211;-74
2021/09/20 05:27:47;;;;;;;22.80;13.23;;;;;;;;;;5013283;28;20202;-74
2021/09/20 05:30:14;;;;;;;19.15;11.90;;;;;;;;;;5026430;28;20200;-74
2021/09/20 05:32:40;;;;;;;20.03;11.70;;;;;;;;;;5012835;28;20209;-74
2021/09/20 05:35:06;;;;;;;19.00;12.20;;;;;;;;;;5025970;28;20208;-74
2021/09/20 05:37:32;;;;;;;21.33;12.80;;;;;;;;;;5026116;28;20181;-74
2021/09/20 05:39:58;;;;;;;23.40;12.50;;;;;;;;;;5016932;28;20197;-74
2021/09/20 05:42:23;;;;;;;18.73;12.30;;;;;;;;;;5022096;28;20280;-73
2021/09/20 05:44:49;;;;;;;18.45;12.30;;;;;;;;;;5016303;28;20560;-74
2021/09/20 05:47:14;;;;;;;22.40;12.60;;;;;;;;;;5023288;28;20224;-74
2021/09/20 05:49:39;;;;;;;20.80;12.93;;;;;;;;;;5016281;28;20268;-74
2021/09/20 05:52:05;;;;;;;20.75;12.43;;;;;;;;;;5023763;28;20194;-74
2021/09/20 05:54:30;;;;;;;20.40;12.43;;;;;;;;;;5015326;28;20210;-74
2021/09/20 05:56:56;;;;;;;24.55;13.27;;;;;;;;;;5024806;28;20311;-74
2021/09/20 05:59:21;;;;;;;25.15;13.32;;;;;;;;;;5017579;28;20246;-73
2021/09/20 06:01:46;;;;;;;20.13;12.13;;;;;;;;;;5027007;28;20237;-73
2021/09/20 06:04:12;;;;;;;24.67;13.75;;;;;;;;;;5019968;28;20707;-74
2021/09/20 06:06:37;;;;;;;20.88;12.90;;;;;;;;;;5021016;28;20204;-73
2021/09/20 06:09:02;;;;;;;22.77;12.88;;;;;;;;;;5028206;28;20200;-73
2021/09/20 06:11:28;;;;;;;21.30;12.32;;;;;;;;;;5020244;28;20698;-73
2021/09/20 06:13:55;;;;;;;18.77;12.52;;;;;;;;;;5027136;28;20676;-73
2021/09/20 06:16:21;;;;;;;18.83;12.85;;;;;;;;;;5016953;28;20173;-73
2021/09/20 06:18:46;;;;;;;24.38;13.43;;;;;;;;;;5028380;28;20181;-72
2021/09/20 06:21:11;;;;;;;25.70;14.20;;;;;;;;;;5016642;28;20185;-73
2021/09/20 06:23:37;;;;;;;23.13;13.27;;;;;;;;;;5027508;28;20170;-73
2021/09/20 06:26:02;;;;;;;22.88;12.93;;;;;;;;;;5016340;28;20229;-73
2021/09/20 06:28:28;;;;;;;24.08;13.60;;;;;;;;;;5023564;28;22348;-73
2021/09/20 06:30:53;;;;;;;19.27;12.55;;;;;;;;;;5019213;28;20213;-74
2021/09/20 06:33:18;;;;;;;21.00;13.10;;;;;;;;;;5025803;28;20271;-74
2021/09/20 06:35:44;;;;;;;22.17;14.15;;;;;;;;;;5028189;28;20217;-74
2021/09/20 06:38:09;;;;;;;24.70;12.68;;;;;;;;;;5019966;28;20190;-74
2021/09/20 06:40:35;;;;;;;18.90;11.98;;;;;;;;;;5026955;28;20209;-74
2021/09/20 06:43:00;;;;;;;18.60;12.98;;;;;;;;;;5022267;28;20227;-73
2021/09/20 06:45:26;;;;;;;22.48;12.93;;;;;;;;;;5029423;28;20190;-74
2021/09/20 06:47:52;;;;;;;20.92;13.07;;;;;;;;;;5019773;28;20258;-74
2021/09/20 06:50:18;;;;;;;20.02;11.95;;;;;;;;;;5031180;28;21450;-74
2021/09/20 06:52:43;;;;;;;19.33;12.73;;;;;;;;;;5022444;28;20190;-74
2021/09/20 06:55:10;;;;;;;20.23;12.48;;;;;;;;;;5029286;28;20209;-75
2021/09/20 06:57:36;;;;;;;17.55;12.05;;;;;;;;;;5024145;28;20236;-74
2021/09/20 07:00:05;;;;;;;19.85;12.23;;;;;;;;;;5031907;28;20222;-74
2021/09/20 07:02:30;;;;;;;20.15;12.05;;;;;;;;;;5023716;28;20275;-74
2021/09/20 07:04:56;;;;;;;19.10;11.35;;;;;;;;;;5029674;28;20220;-74
2021/09/20 07:07:21;;;;;;;18.58;11.80;;;;;;;;;;5025453;28;20285;-74
2021/09/20 07:09:47;;;;;;;19.27;11.80;;;;;;;;;;5025504;28;20197;-74
2021/09/20 07:12:12;;;;;;;18.05;11.85;;;;;;;;;;5031512;28;20200;-74
2021/09/20 07:14:38;;;;;;;17.27;10.75;;;;;;;;;;5025422;28;20209;-74
2021/09/20 07:17:03;;;;;;;19.30;10.52;;;;;;;;;;5028779;28;20295;-74
2021/09/20 07:19:29;;;;;;;14.93;9.80;;;;;;;;;;5018635;28;20194;-74
2021/09/20 07:21:54;;;;;;;15.05;9.75;;;;;;;;;;5034992;28;20242;-74
2021/09/20 07:24:20;;;;;;;14.63;10.00;;;;;;;;;;5024829;28;20186;-74
2021/09/20 07:26:45;;;;;;;15.55;9.90;;;;;;;;;;5029131;28;20559;-72
2021/09/20 07:29:10;;;;;;;16.92;9.35;;;;;;;;;;5022670;28;20652;-74
2021/09/20 07:31:36;;;;;;;12.88;8.88;;;;;;;;;;5032159;28;20217;-72
2021/09/20 07:34:01;;;;;;;13.65;9.60;;;;;;;;;;5026998;28;20193;-73
2021/09/20 07:36:27;;;;;;;13.35;8.85;;;;;;;;;;5025521;28;20197;-73
2021/09/20 07:38:52;;;;;;;13.13;9.13;;;;;;;;;;5031780;28;20186;-73
2021/09/20 07:41:18;;;;;;;14.18;9.10;;;;;;;;;;5020341;28;20554;-73
2021/09/20 07:43:47;;;;;;;14.73;8.70;;;;;;;;;;5027716;28;20878;-73
2021/09/20 07:46:15;;;;;;;11.82;8.25;;;;;;;;;;5023381;28;20276;-73
2021/09/20 07:48:41;;;;;;;14.43;8.20;;;;;;;;;;5027439;28;20201;-73
2021/09/20 07:51:08;;;;;;;15.25;8.60;;;;;;;;;;5025358;28;20190;-75
2021/09/20 07:53:33;;;;;;;12.50;8.05;;;;;;;;;;5028862;28;20233;-75
2021/09/20 07:55:59;;;;;;;9.63;7.22;;;;;;;;;;5018276;28;20201;-75
2021/09/20 07:58:24;;;;;;;14.43;7.63;;;;;;;;;;5030471;28;20201;-74
2021/09/20 08:00:49;;;;;;;11.85;8.07;;;;;;;;;;5020836;28;20341;-74
2021/09/20 08:03:15;;;;;;;13.23;7.97;;;;;;;;;;5026657;28;20645;-76
2021/09/20 08:05:41;;;;;;;13.73;8.02;;;;;;;;;;5022732;28;20186;-74
2021/09/20 08:08:07;;;;;;;12.70;8.15;;;;;;;;;;5025001;28;20629;-73
2021/09/20 08:10:33;;;;;;;12.90;7.65;;;;;;;;;;5027530;28;20192;-73
2021/09/20 08:13:00;;;;;;;12.13;7.45;;;;;;;;;;5021143;28;20228;-73
2021/09/20 08:15:26;;;;;;;15.70;7.70;;;;;;;;;;5028928;28;20652;-72
2021/09/20 08:17:51;;;;;;;11.23;7.70;;;;;;;;;;5022908;28;20189;-74
2021/09/20 08:20:17;;;;;;;9.50;7.13;;;;;;;;;;5027609;28;20698;-74
2021/09/20 08:22:43;;;;;;;12.52;7.78;;;;;;;;;;5022710;28;20209;-74
2021/09/20 08:25:09;;;;;;;11.43;7.38;;;;;;;;;;5027759;28;20636;-75
2021/09/20 08:27:34;;;;;;;10.95;7.22;;;;;;;;;;5026250;28;20193;-74
2021/09/20 08:30:01;;;;;;;13.52;7.57;;;;;;;;;;5029035;28;20560;-74
2021/09/20 08:32:26;;;;;;;12.77;7.40;;;;;;;;;;5020617;28;20212;-75
2021/09/20 08:34:51;;;;;;;9.13;7.28;;;;;;;;;;5026211;28;20296;-74
2021/09/20 08:37:17;;;;;;;8.63;6.50;;;;;;;;;;5031439;28;20212;-74
2021/09/20 08:39:43;;;;;;;10.43;7.18;;;;;;;;;;5025982;28;20188;-73
2021/09/20 08:42:08;;;;;;;7.93;6.13;;;;;;;;;;5026890;28;20198;-73
2021/09/20 08:44:34;;;;;;;13.32;6.75;;;;;;;;;;5015068;28;20185;-73
2021/09/20 08:46:59;;;;;;;10.38;6.63;;;;;;;;;;5027428;28;20549;-73
2021/09/20 08:49:27;;;;;;;7.93;5.90;;;;;;;;;;5020045;28;20191;-73
2021/09/20 08:51:57;;;;;;;9.00;6.47;;;;;;;;;;5028751;28;20725;-74
2021/09/20 08:54:23;;;;;;;14.35;6.65;;;;;;;;;;5017443;28;20283;-74
2021/09/20 08:56:50;;;;;;;9.27;6.30;;;;;;;;;;5030144;28;20193;-75
2021/09/20 08:59:15;;;;;;;7.85;6.28;;;;;;;;;;5020812;28;20636;-75
2021/09/20 09:01:42;;;;;;;9.93;6.55;;;;;;;;;;5026961;28;20231;-75
2021/09/20 09:04:30;;;;;;;10.23;6.97;;;;;;;;;;5021335;28;20276;-74
2021/09/20 09:07:07;;;;;;;9.73;6.95;;;;;;;;;;5029749;28;20276;-74
2021/09/20 09:09:38;;;;;;;9.38;6.57;;;;;;;;;;5020067;28;20516;-75
2021/09/20 09:12:17;;;;;;;10.48;7.25;;;;;;;;;;5028440;28;20277;-74
2021/09/20 09:14:50;;;;;;;11.05;6.72;;;;;;;;;;5019601;28;20205;-72
2021/09/20 09:17:33;;;;;;;10.40;6.88;;;;;;;;;;5028408;28;20190;-73
2021/09/20 09:20:17;;;;;;;7.00;5.47;;;;;;;;;;5019544;28;20585;-72
2021/09/20 09:22:49;;;;;;;8.88;5.38;;;;;;;;;;5027017;28;20189;-74
2021/09/20 09:25:28;;;;;;;11.35;5.70;;;;;;;;;;5017917;28;20193;-74
2021/09/20 09:27:58;;;;;;;8.75;5.18;;;;;;;;;;5031161;28;20197;-74
2021/09/20 09:30:27;;;;;;;8.07;5.38;;;;;;;;;;5021003;28;22849;-73
2021/09/20 09:33:08;;;;;;;7.47;4.78;;;;;;;;;;5027923;28;20197;-73
2021/09/20 09:35:35;;;;;;;7.80;4.70;;;;;;;;;;5018902;28;20194;-73
2021/09/20 09:38:04;;;;;;;7.95;4.90;;;;;;;;;;5029167;28;20181;-73
2021/09/20 09:40:30;;;;;;;6.97;5.00;;;;;;;;;;5026978;28;20655;-74
2021/09/20 09:43:01;;;;;;;7.88;5.00;;;;;;;;;;5020483;28;20185;-73
2021/09/20 09:45:32;;;;;;;7.75;5.03;;;;;;;;;;5026858;28;20192;-72
2021/09/20 09:48:14;;;;;;;6.60;4.97;;;;;;;;;;5019182;28;20193;-74
2021/09/20 09:50:50;;;;;;;5.40;4.78;;;;;;;;;;5028079;28;20267;-73
2021/09/20 09:53:40;;;;;;;8.95;5.20;;;;;;;;;;5017887;28;20219;-73
2021/09/20 09:56:15;;;;;;;6.70;4.43;;;;;;;;;;5031632;28;20267;-73
2021/09/20 09:59:04;;;;;;;5.70;4.75;;;;;;;;;;5023479;28;20212;-74
2021/09/20 10:01:35;;;;;;;6.25;4.30;;;;;;;;;;5026040;28;20225;-74
2021/09/20 10:04:24;;;;;;;6.82;4.13;;;;;;;;;;5020708;28;20609;-74
2021/09/20 10:06:55;;;;;;;6.25;3.72;;;;;;;;;;5025328;28;20200;-74
2021/09/20 10:09:23;;;;;;;5.25;3.70;;;;;;;;;;5016308;28;20202;-75
2021/09/20 10:11:50;;;;;;;6.20;3.63;;;;;;;;;;5033262;28;20194;-74
2021/09/20 10:14:17;;;;;;;8.48;3.70;;;;;;;;;;5021633;28;20967;-73
2021/09/20 10:16:46;;;;;;;6.97;3.80;;;;;;;;;;5031842;28;20185;-73
2021/09/20 10:19:11;;;;;;;6.95;3.70;;;;;;;;;;5022396;28;20198;-73
2021/09/20 10:21:37;;;;;;;5.68;3.10;;;;;;;;;;5032461;28;20185;-74
2021/09/20 10:24:03;;;;;;;5.90;3.30;;;;;;;;;;5023127;28;20622;-72
2021/09/20 10:26:29;;;;;;;3.88;3.17;;;;;;;;;;5033004;28;20213;-72
2021/09/20 10:28:56;;;;;;;5.13;3.10;;;;;;;;;;5023658;28;20202;-72
2021/09/20 10:31:23;;;;;;;4.63;3.22;;;;;;;;;;5033921;28;20190;-71
2021/09/20 10:33:48;;;;;;;4.47;3.30;;;;;;;;;;5028559;28;20216;-71
2021/09/20 10:36:15;;;;;;;6.30;3.08;;;;;;;;;;5026957;28;20599;-72
2021/09/20 10:38:51;;;;;;;5.05;2.92;;;;;;;;;;5024150;28;20190;-73
2021/09/20 10:41:22;;;;;;;4.70;3.30;;;;;;;;;;5031597;28;20193;-73
2021/09/20 10:43:59;;;;;;;5.43;2.60;;;;;;;;;;5027309;28;20178;-73
2021/09/20 10:46:32;;;;;;;4.13;2.00;;;;;;;;;;5030602;28;20935;-73
2021/09/20 10:49:01;;;;;;;7.35;2.22;;;;;;;;;;5033061;28;20190;-74
2021/09/20 10:51:35;;;;;;;3.15;2.20;;;;;;;;;;5032724;28;20766;-74
2021/09/20 10:54:10;;;;;;;6.15;1.95;;;;;;;;;;5029551;28;20213;-73
2021/09/20 10:56:36;;;;;;;3.92;2.05;;;;;;;;;;5023927;28;20190;-74
2021/09/20 10:59:02;;;;;;;3.20;2.10;;;;;;;;;;5031474;28;20206;-74
2021/09/20 11:01:32;;;;;;;3.63;2.08;;;;;;;;;;5021702;28;20230;-73
2021/09/20 11:03:59;;;;;;;2.30;2.00;;;;;;;;;;5032688;28;20183;-73
2021/09/20 11:06:26;;;;;;;3.53;2.20;;;;;;;;;;5022249;28;20619;-73
2021/09/20 11:09:14;;;;;;;4.15;1.92;;;;;;;;;;5030004;28;20594;-73
2021/09/20 11:11:45;;;;;;;6.28;1.80;;;;;;;;;;5023181;28;20204;-73
2021/09/20 11:14:15;;;;;;;3.15;1.75;;;;;;;;;;5029961;28;20210;-74
2021/09/20 11:16:53;;;;;;;3.70;1.90;;;;;;;;;;5025071;28;20216;-72
2021/09/20 11:19:28;;;;;;;2.70;1.80;;;;;;;;;;5029402;28;20190;-73
2021/09/20 11:22:02;;;;;;;2.00;1.30;;;;;;;;;;5023979;28;20667;-72
2021/09/20 11:24:46;;;;;;;5.22;1.50;;;;;;;;;;5029974;28;20185;-73
2021/09/20 11:27:47;;;;;;;2.63;1.17;;;;;;;;;;5019368;28;20200;-74
2021/09/20 11:30:13;;;;;;;2.13;1.38;;;;;;;;;;5021718;28;20769;-74
2021/09/20 11:33:00;;;;;;;2.17;1.42;;;;;;;;;;5020713;28;20190;-74
2021/09/20 11:35:27;;;;;;;4.28;1.52;;;;;;;;;;5036116;28;20186;-74
2021/09/20 11:37:54;;;;;;;1.58;1.48;;;;;;;;;;5027021;28;20605;-74
2021/09/20 11:40:22;;;;;;;2.08;1.55;;;;;;;;;;5030311;28;20178;-73
2021/09/20 11:42:53;;;;;;;1.60;1.50;;;;;;;;;;5023624;28;20602;-74
2021/09/20 11:45:21;;;;;;;2.40;1.35;;;;;;;;;;5031626;28;20166;-74
2021/09/20 11:47:51;;;;;;;2.75;1.35;;;;;;;;;;5023719;28;20240;-72
2021/09/20 11:50:22;;;;;;;2.58;0.98;;;;;;;;;;5031623;28;20685;-73
2021/09/20 11:52:53;;;;;;;4.07;1.23;;;;;;;;;;5023916;28;20182;-73
2021/09/20 11:55:30;;;;;;;2.75;1.40;;;;;;;;;;5032998;28;20763;-73
2021/09/20 11:57:58;;;;;;;3.47;1.13;;;;;;;;;;5022861;28;20206;-73
2021/09/20 12:00:30;;;;;;;3.58;1.42;;;;;;;;;;5029222;28;20613;-74
2021/09/20 12:02:58;;;;;;;1.80;1.33;;;;;;;;;;5017636;28;20268;-75
2021/09/20 12:05:37;;;;;;;2.33;1.13;;;;;;;;;;5032348;28;20190;-74
2021/09/20 12:08:06;;;;;;;2.47;1.20;;;;;;;;;;5030695;28;20321;-74
2021/09/20 12:10:38;;;;;;;1.83;1.10;;;;;;;;;;5028966;28;20189;-74
2021/09/20 12:13:09;;;;;;;0.98;0.90;;;;;;;;;;5028954;28;20285;-74
2021/09/20 12:15:40;;;;;;;2.85;1.00;;;;;;;;;;5023021;28;20329;-73
2021/09/20 12:18:06;;;;;;;3.20;1.10;;;;;;;;;;5029834;28;20205;-74
2021/09/20 12:20:37;;;;;;;2.58;1.10;;;;;;;;;;5028651;28;20239;-73
2021/09/20 12:23:08;;;;;;;4.25;1.30;;;;;;;;;;5032936;28;20182;-74
2021/09/20 12:25:38;;;;;;;2.03;1.08;;;;;;;;;;5022808;28;20197;-69
2021/09/20 12:28:06;;;;;;;4.72;1.33;;;;;;;;;;5031755;28;20185;-74
2021/09/20 12:30:32;;;;;;;1.58;0.93;;;;;;;;;;5025300;28;20250;-73
2021/09/20 12:33:04;;;;;;;1.85;1.00;;;;;;;;;;5030736;28;20186;-73
2021/09/20 12:35:30;;;;;;;4.78;1.10;;;;;;;;;;5021692;28;20189;-73
2021/09/20 12:38:12;;;;;;;2.30;0.95;;;;;;;;;;5026699;28;20644;-73
2021/09/20 12:40:37;;;;;;;2.85;1.10;;;;;;;;;;5018581;28;20198;-73
2021/09/20 12:43:09;;;;;;;1.67;1.17;;;;;;;;;;5029461;28;20186;-74
2021/09/20 12:45:41;;;;;;;1.63;1.10;;;;;;;;;;5020323;28;20189;-73
2021/09/20 12:48:07;;;;;;;2.70;0.93;;;;;;;;;;5030357;28;20182;-72
2021/09/20 12:50:45;;;;;;;1.40;0.90;;;;;;;;;;5019773;28;20568;-73
2021/09/20 12:53:10;;;;;;;4.78;1.00;;;;;;;;;;5029079;28;20292;-73
2021/09/20 12:55:39;;;;;;;2.33;0.90;;;;;;;;;;5023097;28;20331;-73
2021/09/20 12:58:07;;;;;;;4.20;1.20;;;;;;;;;;5031612;28;20206;-72
2021/09/20 13:00:38;;;;;;;1.83;1.10;;;;;;;;;;5026408;28;20913;-74
2021/09/20 13:03:15;;;;;;;1.40;1.10;;;;;;;;;;5019856;28;20202;-73
2021/09/20 13:05:43;;;;;;;2.75;1.00;;;;;;;;;;5023020;28;20609;-73
2021/09/20 13:08:08;;;;;;;3.75;1.20;;;;;;;;;;5013009;28;20351;-72
2021/09/20 13:10:36;;;;;;;2.13;1.30;;;;;;;;;;5024911;28;20277;-72
2021/09/20 13:13:02;;;;;;;3.90;1.10;;;;;;;;;;5019767;28;20201;-73
2021/09/20 13:15:29;;;;;;;2.75;1.08;;;;;;;;;;5025735;28;20186;-72
2021/09/20 13:17:59;;;;;;;2.65;1.50;;;;;;;;;;5020197;28;20178;-73
2021/09/20 13:20:29;;;;;;;3.47;1.23;;;;;;;;;;5026506;28;20196;-73
2021/09/20 13:22:59;;;;;;;1.10;1.00;;;;;;;;;;5022083;28;20262;-72
2021/09/20 13:25:34;;;;;;;1.60;1.00;;;;;;;;;;5025601;28;20193;-74
2021/09/20 13:28:09;;;;;;;3.80;1.42;;;;;;;;;;5022508;28;20205;-73
2021/09/20 13:30:55;;;;;;;2.50;1.00;;;;;;;;;;5027984;28;20195;-71
2021/09/20 13:33:22;;;;;;;2.67;1.05;;;;;;;;;;5019807;28;20227;-73
2021/09/20 13:35:50;;;;;;;1.67;1.20;;;;;;;;;;5031909;28;21182;-73
2021/09/20 13:38:18;;;;;;;1.95;1.25;;;;;;;;;;5020118;28;20661;-73
2021/09/20 13:40:45;;;;;;;4.70;1.00;;;;;;;;;;5031157;28;20181;-73
2021/09/20 13:43:11;;;;;;;1.60;0.90;;;;;;;;;;4320783;28;10000876;-73
2021/09/20 13:45:36;;;;;;;3.38;1.20;;;;;;;;;;5026506;28;20239;-73
2021/09/20 13:48:04;;;;;;;1.50;1.10;;;;;;;;;;5024269;28;20201;-74
2021/09/20 13:50:29;;;;;;;1.27;0.88;;;;;;;;;;5014645;28;20200;-73
2021/09/20 13:52:55;;;;;;;5.32;1.35;;;;;;;;;;5024304;28;20202;-74
2021/09/20 13:55:21;;;;;;;1.95;0.95;;;;;;;;;;5014802;28;20236;-73
2021/09/20 13:57:46;;;;;;;2.35;1.08;;;;;;;;;;5017281;28;20473;-73
2021/09/20 14:00:12;;;;;;;1.45;0.93;;;;;;;;;;5015923;28;20197;-73
2021/09/20 14:02:39;;;;;;;3.40;1.00;;;;;;;;;;5018965;28;20228;-72
2021/09/20 14:05:07;;;;;;;1.70;1.20;;;;;;;;;;5012771;28;20227;-72
2021/09/20 14:07:32;;;;;;;3.42;1.00;;;;;;;;;;5021298;28;20190;-72
2021/09/20 14:09:58;;;;;;;1.52;0.95;;;;;;;;;;5017022;28;20269;-70
2021/09/20 14:12:24;;;;;;;1.85;0.88;;;;;;;;;;5024373;28;20197;-73
2021/09/20 14:14:49;;;;;;;1.85;1.15;;;;;;;;;;5010599;28;20219;-72
2021/09/20 14:17:15;;;;;;;1.75;1.10;;;;;;;;;;5019341;28;20821;-73
2021/09/20 14:19:40;;;;;;;2.70;1.10;;;;;;;;;;5021379;28;20184;-72
2021/09/20 14:22:07;;;;;;;1.73;1.05;;;;;;;;;;5012278;28;20192;-73
2021/09/20 14:24:36;;;;;;;2.60;1.10;;;;;;;;;;5020807;28;20567;-73
2021/09/20 14:27:03;;;;;;;4.30;1.20;;;;;;;;;;5012320;28;20198;-73
2021/09/20 14:29:29;;;;;;;2.25;1.27;;;;;;;;;;5017922;28;20716;-73
2021/09/20 14:31:54;;;;;;;2.70;1.30;;;;;;;;;;5010909;28;20244;-73
2021/09/20 14:34:20;;;;;;;2.63;1.20;;;;;;;;;;5022707;28;20210;-73